Time;durP1;ratioP1;P1;durP2;ratioP2;P2;SDS_P1;SDS_P2;PMS_P1;PMS_P2;Temp;Humidity;BMP_temperature;BMP_pressure;BME280_temperature;BME280_humidity;BME280_pressure;Samples;Min_cycle;Max_cycle;Signal;HPM_P1;HPM_P2
2021/11/10 00:01:51;;;;;;;7.43;3.63;;;9.30;75.30;;;;;;5046281;28;20399;-81
2021/11/10 00:04:19;;;;;;;10.48;4.53;;;9.30;75.30;;;;;;5033412;28;20022;-81
2021/11/10 00:06:45;;;;;;;8.68;4.40;;;9.20;75.40;;;;;;5030763;28;20055;-81
2021/11/10 00:09:10;;;;;;;8.18;4.25;;;9.20;75.60;;;;;;5040235;28;20025;-81
2021/11/10 00:11:36;;;;;;;8.68;4.10;;;9.20;75.70;;;;;;5026961;28;20057;-82
2021/11/10 00:14:02;;;;;;;9.40;4.80;;;9.10;75.60;;;;;;5029129;28;20378;-82
2021/11/10 00:16:27;;;;;;;8.77;4.28;;;9.10;75.60;;;;;;5018854;28;20120;-81
2021/11/10 00:18:55;;;;;;;9.68;4.20;;;9.10;75.70;;;;;;5032781;28;20025;-81
2021/11/10 00:21:22;;;;;;;7.93;4.20;;;9.10;75.60;;;;;;5026719;28;20026;-80
2021/11/10 00:23:47;;;;;;;9.05;4.57;;;9.10;75.50;;;;;;5025604;28;20027;-81
2021/11/10 00:26:13;;;;;;;7.28;3.90;;;9.10;75.50;;;;;;5033619;28;20033;-80
2021/11/10 00:28:39;;;;;;;7.80;4.30;;;9.10;75.50;;;;;;5043173;28;20507;-80
2021/11/10 00:31:05;;;;;;;7.07;4.13;;;9.10;75.50;;;;;;5029814;28;20064;-80
2021/11/10 00:33:31;;;;;;;8.68;4.75;;;9.10;75.50;;;;;;5043285;28;20053;-81
2021/11/10 00:35:57;;;;;;;9.13;5.20;;;9.00;75.50;;;;;;5042058;28;20036;-78
2021/11/10 00:38:22;;;;;;;8.65;4.82;;;9.00;75.60;;;;;;5034881;28;20032;-79
2021/11/10 00:40:48;;;;;;;8.82;4.50;;;9.00;75.60;;;;;;5036469;28;20404;-79
2021/11/10 00:43:14;;;;;;;9.55;5.05;;;9.00;75.60;;;;;;5044957;28;20071;-78
2021/11/10 00:45:39;;;;;;;8.82;5.22;;;8.90;75.60;;;;;;5038535;28;20025;-78
2021/11/10 00:48:06;;;;;;;10.50;4.47;;;8.90;75.60;;;;;;5036328;28;20501;-77
2021/11/10 00:50:33;;;;;;;8.52;4.90;;;8.90;75.60;;;;;;5036884;28;20064;-78
2021/11/10 00:52:58;;;;;;;7.93;4.78;;;8.90;75.60;;;;;;5022450;28;20040;-78
2021/11/10 00:55:25;;;;;;;8.27;4.78;;;8.90;75.60;;;;;;5020112;28;20022;-78
2021/11/10 00:57:51;;;;;;;8.38;4.95;;;8.90;75.60;;;;;;5019864;28;20040;-78
2021/11/10 01:00:18;;;;;;;7.43;4.55;;;8.90;75.60;;;;;;5023089;28;20014;-78
2021/11/10 01:02:44;;;;;;;8.52;4.85;;;8.90;75.50;;;;;;5022795;28;20022;-78
2021/11/10 01:05:10;;;;;;;7.75;4.60;;;8.90;75.60;;;;;;5027776;28;20079;-78
2021/11/10 01:07:36;;;;;;;9.18;4.93;;;8.90;75.60;;;;;;5021020;28;20116;-78
2021/11/10 01:10:03;;;;;;;6.45;4.47;;;8.90;75.60;;;;;;5047732;28;20080;-78
2021/11/10 01:12:30;;;;;;;8.75;4.80;;;8.90;75.60;;;;;;5028717;28;20032;-78
2021/11/10 01:14:56;;;;;;;9.77;5.15;;;8.80;75.70;;;;;;5030406;28;20021;-79
2021/11/10 01:17:22;;;;;;;11.10;5.22;;;8.80;75.80;;;;;;5039319;28;20033;-78
2021/11/10 01:19:48;;;;;;;9.48;5.47;;;8.80;76.40;;;;;;5027450;28;20022;-78
2021/11/10 01:22:14;;;;;;;11.77;6.00;;;8.80;75.80;;;;;;5018423;28;20025;-79
2021/11/10 01:24:39;;;;;;;10.32;5.53;;;8.80;75.90;;;;;;5035513;28;20112;-79
2021/11/10 01:27:05;;;;;;;9.77;5.18;;;8.80;75.80;;;;;;5038228;28;20028;-81
2021/11/10 01:29:31;;;;;;;8.23;5.10;;;8.80;75.80;;;;;;5027513;28;20464;-79
2021/11/10 01:31:57;;;;;;;8.68;4.85;;;8.80;75.80;;;;;;5027665;28;20030;-79
2021/11/10 01:34:22;;;;;;;11.40;5.47;;;8.80;75.80;;;;;;5035018;28;20740;-78
2021/11/10 01:36:48;;;;;;;11.43;5.20;;;8.70;75.80;;;;;;5021533;28;20033;-79
2021/11/10 01:39:14;;;;;;;8.10;4.70;;;8.70;75.90;;;;;;5030555;28;20116;-77
2021/11/10 01:41:46;;;;;;;8.27;4.80;;;8.70;76.00;;;;;;5017571;28;20022;-78
2021/11/10 01:44:20;;;;;;;9.05;4.43;;;8.70;76.10;;;;;;5033726;28;20430;-77
2021/11/10 01:46:46;;;;;;;8.05;4.45;;;8.60;76.20;;;;;;5024128;28;20030;-78
2021/11/10 01:49:12;;;;;;;7.47;4.28;;;8.50;76.30;;;;;;5031035;28;20028;-77
2021/11/10 01:51:46;;;;;;;6.38;4.53;;;8.40;76.40;;;;;;5020972;28;20030;-78
2021/11/10 01:54:13;;;;;;;7.75;4.72;;;8.40;76.50;;;;;;5020230;28;20022;-78
2021/11/10 01:56:40;;;;;;;10.20;5.53;;;8.40;76.60;;;;;;5029188;28;20038;-77
2021/11/10 01:59:06;;;;;;;8.32;4.88;;;8.40;76.50;;;;;;5028718;28;20045;-77
2021/11/10 02:01:31;;;;;;;7.75;4.90;;;8.40;76.40;;;;;;5029115;28;20493;-78
2021/11/10 02:03:57;;;;;;;8.68;4.80;;;8.40;76.30;;;;;;5032805;28;20107;-79
2021/11/10 02:06:23;;;;;;;10.05;5.80;;;8.40;76.10;;;;;;5025511;28;20427;-79
2021/11/10 02:08:49;;;;;;;8.10;5.43;;;8.40;76.80;;;;;;5023914;28;20022;-79
2021/11/10 02:11:15;;;;;;;9.60;5.07;;;8.40;76.10;;;;;;5031690;28;20428;-79
2021/11/10 02:13:40;;;;;;;12.10;5.47;;;8.40;76.20;;;;;;5015663;28;20067;-77
2021/11/10 02:16:06;;;;;;;8.27;4.78;;;8.30;76.10;;;;;;5027304;28;20037;-79
2021/11/10 02:18:31;;;;;;;9.68;5.97;;;8.30;76.10;;;;;;5036696;28;20034;-79
2021/11/10 02:20:57;;;;;;;9.43;5.15;;;8.30;76.10;;;;;;5032313;28;20033;-81
2021/11/10 02:23:23;;;;;;;8.02;4.55;;;8.30;76.20;;;;;;5026795;28;20100;-79
2021/11/10 02:25:55;;;;;;;9.75;4.88;;;8.20;76.20;;;;;;5012254;28;20487;-79
2021/11/10 02:28:21;;;;;;;9.82;4.70;;;8.20;76.40;;;;;;5015122;28;20022;-79
2021/11/10 02:30:47;;;;;;;10.15;5.82;;;8.20;76.40;;;;;;5012686;28;20372;-80
2021/11/10 02:33:14;;;;;;;7.47;4.75;;;8.20;76.50;;;;;;5022863;28;20033;-80
2021/11/10 02:35:40;;;;;;;11.88;5.45;;;8.20;76.60;;;;;;5020866;28;20038;-80
2021/11/10 02:38:07;;;;;;;9.90;5.40;;;8.20;76.60;;;;;;5022080;28;20503;-80
2021/11/10 02:40:34;;;;;;;11.27;5.47;;;8.20;76.60;;;;;;5030827;28;20107;-80
2021/11/10 02:42:59;;;;;;;9.07;5.30;;;8.20;76.60;;;;;;5020774;28;20026;-80
2021/11/10 02:45:26;;;;;;;7.60;4.60;;;8.10;76.50;;;;;;5017165;28;20022;-80
2021/11/10 02:47:53;;;;;;;8.38;4.70;;;8.10;76.50;;;;;;5018202;28;20025;-79
2021/11/10 02:50:19;;;;;;;6.95;4.53;;;8.10;76.70;;;;;;5020699;28;20033;-78
2021/11/10 02:52:45;;;;;;;9.30;4.70;;;7.90;76.70;;;;;;5016265;28;20043;-78
2021/11/10 02:55:11;;;;;;;7.18;4.78;;;8.00;76.80;;;;;;5017470;28;20481;-80
2021/11/10 02:57:36;;;;;;;12.13;6.07;;;8.00;76.80;;;;;;5026253;28;20037;-80
2021/11/10 03:00:06;;;;;;;7.43;4.88;;;8.00;76.80;;;;;;5024328;28;20017;-80
2021/11/10 03:02:32;;;;;;;8.68;5.25;;;7.90;76.70;;;;;;5053759;28;20129;-81
2021/11/10 03:04:59;;;;;;;9.93;5.93;;;8.00;76.70;;;;;;5019904;28;20033;-81
2021/11/10 03:07:24;;;;;;;8.95;5.00;;;7.90;76.70;;;;;;5011826;28;20393;-77
2021/11/10 03:09:50;;;;;;;9.60;5.18;;;7.90;76.70;;;;;;5029766;28;20025;-78
2021/11/10 03:12:17;;;;;;;9.07;5.10;;;7.90;76.70;;;;;;5018982;28;20022;-78
2021/11/10 03:14:45;;;;;;;9.20;5.30;;;7.80;76.80;;;;;;5029990;28;20022;-78
2021/11/10 03:17:15;;;;;;;7.25;4.47;;;7.80;77.00;;;;;;5055178;28;20037;-79
2021/11/10 03:19:40;;;;;;;8.98;4.88;;;7.70;77.00;;;;;;5025146;28;20022;-80
2021/11/10 03:22:09;;;;;;;8.10;4.45;;;7.70;77.10;;;;;;5011850;28;20026;-79
2021/11/10 03:24:35;;;;;;;8.27;4.70;;;7.70;77.20;;;;;;5048590;28;20065;-78
2021/11/10 03:27:01;;;;;;;9.75;4.57;;;7.60;77.30;;;;;;5024863;28;20053;-79
2021/11/10 03:29:27;;;;;;;9.15;4.85;;;7.60;77.50;;;;;;5015750;28;20037;-78
2021/11/10 03:31:53;;;;;;;8.95;4.63;;;7.60;77.60;;;;;;5030733;28;20037;-78
2021/11/10 03:34:20;;;;;;;7.57;4.90;;;7.60;77.70;;;;;;5021135;28;20361;-79
2021/11/10 03:36:46;;;;;;;9.10;4.80;;;7.60;77.90;;;;;;5028887;28;20112;-80
2021/11/10 03:39:14;;;;;;;10.27;4.88;;;7.60;77.90;;;;;;5012244;28;20034;-80
2021/11/10 03:41:39;;;;;;;9.75;5.18;;;7.50;77.80;;;;;;5029488;28;20021;-79
2021/11/10 03:44:05;;;;;;;7.50;4.95;;;7.50;78.00;;;;;;5019833;28;20108;-79
2021/11/10 03:46:31;;;;;;;9.18;4.78;;;7.50;78.10;;;;;;5021401;28;20116;-79
2021/11/10 03:48:57;;;;;;;9.98;5.40;;;7.50;78.10;;;;;;5021553;28;20022;-80
2021/11/10 03:51:23;;;;;;;8.73;5.43;;;7.50;78.20;;;;;;5021130;28;20386;-80
2021/11/10 03:53:49;;;;;;;8.13;5.00;;;7.50;78.20;;;;;;5053690;28;20053;-80
2021/11/10 03:56:15;;;;;;;10.45;5.20;;;7.50;78.10;;;;;;5022523;28;20034;-80
2021/11/10 03:58:41;;;;;;;8.68;4.93;;;7.50;78.60;;;;;;5017782;28;20026;-79
2021/11/10 04:01:07;;;;;;;9.43;5.10;;;7.50;77.90;;;;;;5019132;28;20055;-80
2021/11/10 04:03:33;;;;;;;7.15;5.00;;;7.50;77.90;;;;;;5026727;28;20559;-80
2021/11/10 04:05:59;;;;;;;9.07;5.25;;;7.50;77.90;;;;;;5011310;28;20034;-80
2021/11/10 04:08:26;;;;;;;9.25;5.32;;;7.50;77.80;;;;;;5014653;28;20052;-80
2021/11/10 04:10:51;;;;;;;10.10;5.05;;;7.50;77.80;;;;;;5024153;28;20038;-80
2021/11/10 04:13:18;;;;;;;9.05;5.30;;;7.50;77.70;;;;;;5022177;28;20022;-79
2021/11/10 04:15:44;;;;;;;9.25;4.50;;;7.50;77.70;;;;;;5011034;28;20037;-80
2021/11/10 04:18:10;;;;;;;10.50;5.55;;;7.50;77.70;;;;;;5029818;28;20033;-80
2021/11/10 04:20:36;;;;;;;8.02;4.93;;;7.50;77.50;;;;;;5015402;28;20033;-80
2021/11/10 04:23:02;;;;;;;8.65;4.85;;;7.40;77.50;;;;;;5029640;28;20549;-80
2021/11/10 04:25:27;;;;;;;8.82;5.18;;;7.40;77.70;;;;;;5020392;28;20061;-80
2021/11/10 04:27:53;;;;;;;9.52;4.82;;;7.40;77.70;;;;;;5039184;28;20459;-80
2021/11/10 04:30:19;;;;;;;8.45;5.05;;;7.40;77.70;;;;;;5019133;28;20056;-79
2021/11/10 04:32:45;;;;;;;6.75;4.88;;;7.30;77.70;;;;;;5034782;28;20045;-78
2021/11/10 04:35:12;;;;;;;8.52;4.95;;;7.30;77.60;;;;;;5028752;28;20546;-78
2021/11/10 04:37:38;;;;;;;9.57;5.20;;;7.30;77.60;;;;;;5040990;28;20057;-79
2021/11/10 04:40:06;;;;;;;8.95;4.93;;;7.30;77.70;;;;;;5022583;28;20026;-77
2021/11/10 04:42:31;;;;;;;7.05;4.82;;;7.30;77.70;;;;;;5020027;28;20041;-78
2021/11/10 04:45:06;;;;;;;10.45;5.32;;;7.30;77.70;;;;;;5026037;28;20084;-78
2021/11/10 04:47:32;;;;;;;7.90;5.07;;;7.20;77.70;;;;;;5028302;28;20044;-78
2021/11/10 04:49:57;;;;;;;9.48;5.35;;;7.20;77.80;;;;;;5032899;28;20064;-77
2021/11/10 04:52:24;;;;;;;8.52;5.20;;;7.20;77.90;;;;;;5033244;28;20473;-78
2021/11/10 04:54:50;;;;;;;7.47;4.88;;;7.20;77.90;;;;;;5026373;28;20022;-77
2021/11/10 04:57:15;;;;;;;9.02;5.13;;;7.20;77.90;;;;;;5012142;28;20111;-78
2021/11/10 04:59:41;;;;;;;10.57;5.30;;;7.20;78.00;;;;;;5016547;28;20022;-80
2021/11/10 05:04:33;;;;;;;7.38;4.95;;;7.20;77.80;;;;;;5017852;28;20072;-79
2021/11/10 05:06:59;;;;;;;9.73;5.35;;;7.20;78.00;;;;;;5023878;28;20492;-80
2021/11/10 05:09:25;;;;;;;9.27;5.63;;;7.20;78.10;;;;;;5020693;28;20045;-78
2021/11/10 05:11:51;;;;;;;8.38;5.28;;;7.20;78.00;;;;;;5024379;28;20021;-79
2021/11/10 05:14:17;;;;;;;10.57;5.22;;;7.20;77.90;;;;;;5032450;28;20032;-79
2021/11/10 05:16:42;;;;;;;8.95;5.10;;;7.20;78.00;;;;;;5026451;28;20119;-77
2021/11/10 05:19:08;;;;;;;8.07;5.40;;;7.20;78.00;;;;;;5020441;28;20022;-77
2021/11/10 05:21:34;;;;;;;10.45;6.05;;;7.10;77.90;;;;;;5054218;28;20029;-77
2021/11/10 05:24:00;;;;;;;7.65;4.72;;;7.10;78.00;;;;;;5020808;28;20436;-77
2021/11/10 05:26:26;;;;;;;9.27;5.57;;;7.10;78.00;;;;;;5029043;28;20026;-79
2021/11/10 05:28:51;;;;;;;7.88;4.95;;;7.10;78.10;;;;;;5013027;28;20103;-80
2021/11/10 05:31:17;;;;;;;9.02;5.43;;;7.00;78.00;;;;;;5018942;28;20057;-78
2021/11/10 05:33:43;;;;;;;7.43;4.70;;;7.00;78.20;;;;;;5013093;28;20446;-78
2021/11/10 05:36:08;;;;;;;10.18;4.90;;;7.00;78.10;;;;;;5020022;28;20048;-79
2021/11/10 05:38:34;;;;;;;9.30;5.10;;;6.90;78.10;;;;;;5015376;28;20361;-80
2021/11/10 05:41:00;;;;;;;9.02;5.40;;;6.90;78.20;;;;;;5030161;28;20051;-80
2021/11/10 05:43:25;;;;;;;9.20;5.60;;;6.90;78.40;;;;;;5026379;28;20088;-81
2021/11/10 05:45:51;;;;;;;9.05;6.50;;;6.90;78.40;;;;;;5024065;28;20029;-79
2021/11/10 05:48:17;;;;;;;9.32;5.25;;;6.90;78.40;;;;;;5050599;28;20029;-79
2021/11/10 05:50:43;;;;;;;9.52;5.20;;;6.90;78.50;;;;;;5019525;28;20117;-80
2021/11/10 05:53:09;;;;;;;7.53;5.28;;;6.80;78.40;;;;;;5046211;28;20122;-79
2021/11/10 05:55:35;;;;;;;9.02;5.50;;;6.80;78.50;;;;;;5045436;28;20139;-78
2021/11/10 05:58:01;;;;;;;10.00;5.57;;;6.80;78.50;;;;;;5011980;28;20124;-79
2021/11/10 06:00:27;;;;;;;8.40;5.28;;;6.80;78.60;;;;;;5012718;28;20102;-80
2021/11/10 06:02:54;;;;;;;8.93;5.60;;;6.80;78.60;;;;;;5025152;28;20129;-79
2021/11/10 06:05:20;;;;;;;10.25;5.90;;;6.80;78.60;;;;;;5022025;28;20021;-79
2021/11/10 06:07:45;;;;;;;10.32;6.45;;;6.80;78.70;;;;;;5017203;28;20076;-80
2021/11/10 06:10:13;;;;;;;10.07;6.32;;;6.70;78.70;;;;;;5019297;28;20416;-78
2021/11/10 06:12:38;;;;;;;10.50;5.93;;;6.60;78.90;;;;;;5024583;28;20484;-77
2021/11/10 06:15:05;;;;;;;9.02;5.38;;;6.70;79.00;;;;;;5025755;28;20040;-77
2021/11/10 06:17:31;;;;;;;8.57;5.80;;;6.70;79.00;;;;;;5042917;28;20129;-77
2021/11/10 06:19:57;;;;;;;9.02;4.97;;;6.70;79.00;;;;;;5019675;28;20477;-77
2021/11/10 06:22:22;;;;;;;7.43;5.57;;;6.70;78.90;;;;;;5022356;28;20061;-78
2021/11/10 06:24:48;;;;;;;9.70;5.50;;;6.70;78.90;;;;;;5029213;28;20021;-78
2021/11/10 06:27:13;;;;;;;10.25;5.43;;;6.70;79.00;;;;;;5023415;28;20050;-78
2021/11/10 06:29:39;;;;;;;9.25;5.63;;;6.60;79.10;;;;;;5021334;28;20418;-79
2021/11/10 06:32:05;;;;;;;7.10;4.63;;;6.60;79.20;;;;;;5031103;28;20384;-79
2021/11/10 06:34:30;;;;;;;10.73;5.40;;;6.70;79.30;;;;;;5026222;28;20168;-78
2021/11/10 06:37:02;;;;;;;8.88;5.53;;;6.70;79.30;;;;;;5017668;28;20121;-76
2021/11/10 06:39:27;;;;;;;8.93;5.65;;;6.70;79.30;;;;;;5018061;28;20034;-77
2021/11/10 06:41:53;;;;;;;9.02;5.68;;;6.60;79.20;;;;;;5023209;28;20033;-77
2021/11/10 06:44:19;;;;;;;9.88;6.10;;;6.70;79.10;;;;;;5020100;28;20018;-77
2021/11/10 06:46:44;;;;;;;10.77;5.55;;;6.70;79.00;;;;;;5020106;28;20515;-77
2021/11/10 06:49:10;;;;;;;7.90;5.05;;;6.70;78.90;;;;;;5014107;28;20022;-77
2021/11/10 06:51:36;;;;;;;8.18;5.40;;;6.70;78.90;;;;;;5014124;28;20036;-77
2021/11/10 06:54:01;;;;;;;8.43;5.85;;;6.70;78.90;;;;;;5022342;28;20057;-77
2021/11/10 06:56:27;;;;;;;9.80;6.05;;;6.70;78.90;;;;;;5027805;28;20120;-78
2021/11/10 06:58:52;;;;;;;10.88;6.45;;;6.60;78.80;;;;;;5014795;28;20026;-78
2021/11/10 07:01:18;;;;;;;7.28;5.10;;;6.60;78.90;;;;;;5027639;28;20538;-78
2021/11/10 07:03:44;;;;;;;9.23;5.57;;;6.60;79.00;;;;;;5025618;28;20017;-78
2021/11/10 07:06:10;;;;;;;10.85;6.47;;;6.60;78.90;;;;;;5023966;28;20044;-78
2021/11/10 07:08:35;;;;;;;9.38;5.97;;;6.60;78.90;;;;;;5026212;28;20104;-82
2021/11/10 07:11:01;;;;;;;8.90;5.65;;;6.70;78.90;;;;;;5023434;28;20029;-78
2021/11/10 07:13:27;;;;;;;10.77;5.47;;;6.60;78.80;;;;;;5025733;28;20597;-79
2021/11/10 07:15:52;;;;;;;9.88;6.10;;;6.70;78.80;;;;;;5024793;28;20587;-77
2021/11/10 07:18:18;;;;;;;10.48;5.25;;;6.50;78.90;;;;;;5023413;28;20033;-73
2021/11/10 07:20:44;;;;;;;9.15;5.07;;;6.50;79.00;;;;;;5026586;28;20032;-77
2021/11/10 07:23:09;;;;;;;8.25;4.80;;;6.50;79.10;;;;;;5026393;28;20038;-78
2021/11/10 07:25:35;;;;;;;10.27;5.97;;;6.50;79.20;;;;;;5032936;28;20441;-77
2021/11/10 07:28:01;;;;;;;9.90;5.80;;;6.50;79.30;;;;;;5028835;28;20025;-76
2021/11/10 07:30:27;;;;;;;10.50;6.35;;;6.50;79.40;;;;;;5022046;28;20013;-78
2021/11/10 07:32:53;;;;;;;9.93;6.50;;;6.50;79.40;;;;;;5025458;28;20068;-77
2021/11/10 07:35:19;;;;;;;9.10;6.07;;;6.50;79.40;;;;;;5025906;28;20017;-77
2021/11/10 07:37:46;;;;;;;10.27;5.13;;;6.50;79.40;;;;;;5030674;28;20034;-81
2021/11/10 07:40:13;;;;;;;9.93;6.40;;;6.60;79.30;;;;;;5025677;28;20100;-77
2021/11/10 07:42:39;;;;;;;9.05;5.93;;;6.60;79.30;;;;;;5017126;28;20108;-78
2021/11/10 07:45:09;;;;;;;11.25;6.30;;;6.60;79.30;;;;;;5017295;28;20137;-77
2021/11/10 07:47:41;;;;;;;14.10;6.00;;;6.60;79.30;;;;;;5016143;28;20029;-77
2021/11/10 07:50:15;;;;;;;13.70;7.28;;;6.60;79.30;;;;;;5023318;28;20014;-77
2021/11/10 07:52:41;;;;;;;15.75;6.78;;;6.60;79.40;;;;;;5025112;28;20388;-77
2021/11/10 07:55:07;;;;;;;14.40;5.57;;;6.60;79.40;;;;;;5026303;28;20022;-75
2021/11/10 07:57:34;;;;;;;11.77;6.95;;;6.60;79.50;;;;;;5011031;28;20041;-74
2021/11/10 08:00:05;;;;;;;13.10;6.47;;;6.70;79.50;;;;;;5022590;28;20158;-74
2021/11/10 08:02:30;;;;;;;12.05;6.50;;;6.70;79.60;;;;;;5028042;28;20071;-75
2021/11/10 08:04:56;;;;;;;13.65;7.82;;;6.80;79.50;;;;;;5023476;28;20455;-74
2021/11/10 08:07:22;;;;;;;16.27;8.90;;;6.80;79.70;;;;;;5038988;28;20037;-74
2021/11/10 08:09:47;;;;;;;11.75;7.82;;;6.80;79.80;;;;;;5034324;28;20025;-74
2021/11/10 08:12:13;;;;;;;14.25;7.93;;;6.80;79.90;;;;;;5032561;28;20014;-74
2021/11/10 08:14:38;;;;;;;14.63;7.72;;;6.80;80.00;;;;;;5031003;28;20070;-74
2021/11/10 08:17:04;;;;;;;15.48;8.30;;;6.90;79.90;;;;;;5018930;28;20045;-74
2021/11/10 08:19:29;;;;;;;13.50;7.70;;;6.90;79.90;;;;;;5038171;28;20024;-74
2021/11/10 08:21:56;;;;;;;14.40;9.20;;;7.00;79.90;;;;;;5022576;28;20125;-74
2021/11/10 08:24:22;;;;;;;14.38;8.25;;;7.00;80.30;;;;;;5029847;28;20468;-75
2021/11/10 08:26:47;;;;;;;17.45;8.52;;;7.00;80.00;;;;;;5034157;28;20490;-76
2021/11/10 08:29:13;;;;;;;19.23;7.50;;;7.00;80.00;;;;;;5032702;28;20018;-75
2021/11/10 08:31:39;;;;;;;11.90;5.07;;;7.00;80.00;;;;;;5026265;28;20050;-76
2021/11/10 08:34:04;;;;;;;14.00;7.13;;;7.10;79.90;;;;;;5022623;28;20073;-76
2021/11/10 08:36:30;;;;;;;16.60;7.28;;;7.10;79.70;;;;;;5039972;28;20033;-76
2021/11/10 08:38:56;;;;;;;16.70;9.10;;;7.20;79.70;;;;;;5029403;28;20484;-77
2021/11/10 08:41:21;;;;;;;15.50;8.07;;;7.10;79.60;;;;;;5030133;28;20026;-75
2021/11/10 08:43:48;;;;;;;14.65;6.40;;;7.10;79.70;;;;;;5030316;28;20031;-75
2021/11/10 08:46:15;;;;;;;13.27;6.45;;;7.20;79.70;;;;;;5019535;28;20221;-75
2021/11/10 08:48:40;;;;;;;14.10;6.20;;;7.30;79.70;;;;;;5024248;28;20029;-74
2021/11/10 08:51:06;;;;;;;11.43;6.32;;;7.30;79.50;;;;;;5034726;28;20047;-74
2021/11/10 08:53:32;;;;;;;14.27;7.40;;;7.40;79.30;;;;;;5019061;28;20022;-76
2021/11/10 08:55:59;;;;;;;10.10;5.50;;;7.50;79.20;;;;;;5026885;28;20037;-75
2021/11/10 08:58:26;;;;;;;9.35;5.75;;;7.60;79.00;;;;;;5020126;28;20032;-75
2021/11/10 09:00:52;;;;;;;9.40;6.15;;;7.70;78.90;;;;;;5033574;28;20075;-75
2021/11/10 09:03:20;;;;;;;11.35;6.00;;;7.80;78.60;;;;;;5023910;28;20025;-77
2021/11/10 09:05:47;;;;;;;11.82;5.20;;;7.90;78.40;;;;;;5021238;28;20122;-76
2021/11/10 09:08:12;;;;;;;12.18;5.07;;;8.00;78.20;;;;;;5026405;28;20029;-77
2021/11/10 09:10:39;;;;;;;18.30;5.40;;;8.10;78.00;;;;;;5029085;28;20546;-76
2021/11/10 09:13:05;;;;;;;13.82;5.80;;;8.20;77.80;;;;;;5025310;28;20045;-76
2021/11/10 09:15:32;;;;;;;20.73;5.88;;;8.30;77.50;;;;;;5028495;28;20018;-76
2021/11/10 09:18:01;;;;;;;9.15;5.03;;;8.40;77.30;;;;;;5031901;28;20033;-76
2021/11/10 09:20:28;;;;;;;18.05;5.78;;;8.40;77.10;;;;;;5033819;28;20492;-77
2021/11/10 09:22:54;;;;;;;12.68;5.70;;;8.60;76.90;;;;;;5027925;28;20447;-76
2021/11/10 09:25:22;;;;;;;14.75;6.03;;;8.60;76.50;;;;;;5026070;28;20029;-77
2021/11/10 09:27:51;;;;;;;15.85;7.70;;;8.70;76.40;;;;;;5023995;28;20528;-76
2021/11/10 09:30:19;;;;;;;10.50;6.22;;;8.80;76.00;;;;;;5030357;28;20029;-76
2021/11/10 09:32:47;;;;;;;11.07;6.30;;;8.90;75.60;;;;;;5027501;28;20102;-76
2021/11/10 09:35:14;;;;;;;16.67;9.23;;;8.90;75.60;;;;;;5034072;28;20056;-76
2021/11/10 09:37:41;;;;;;;12.50;7.15;;;8.90;75.30;;;;;;5028232;28;20037;-76
2021/11/10 09:40:09;;;;;;;12.18;6.88;;;8.90;74.90;;;;;;5032797;28;20415;-77
2021/11/10 09:42:36;;;;;;;11.40;6.07;;;8.90;74.90;;;;;;5028312;28;20041;-77
2021/11/10 09:45:05;;;;;;;7.75;5.05;;;8.90;75.00;;;;;;5018733;28;20021;-77
2021/11/10 09:47:31;;;;;;;10.18;5.78;;;9.00;75.00;;;;;;5023785;28;20079;-75
2021/11/10 09:50:00;;;;;;;14.13;7.35;;;9.00;74.90;;;;;;5035171;28;20021;-77
2021/11/10 09:52:26;;;;;;;12.57;7.38;;;9.10;74.90;;;;;;5028748;28;20113;-77
2021/11/10 09:54:51;;;;;;;10.85;6.25;;;9.10;74.50;;;;;;5025573;28;20167;-76
2021/11/10 09:57:17;;;;;;;10.13;5.63;;;9.10;74.50;;;;;;5033395;28;20492;-76
2021/11/10 09:59:43;;;;;;;9.35;6.13;;;9.20;74.50;;;;;;5027036;28;20025;-75
2021/11/10 10:02:12;;;;;;;8.82;5.75;;;9.30;74.60;;;;;;5025255;28;20738;-76
2021/11/10 10:04:42;;;;;;;14.85;7.47;;;9.40;74.50;;;;;;5016540;28;20595;-76
2021/11/10 10:07:09;;;;;;;12.02;7.00;;;9.40;74.20;;;;;;5017131;28;20049;-76
2021/11/10 10:09:36;;;;;;;11.07;6.20;;;9.50;74.10;;;;;;5028614;28;20060;-75
2021/11/10 10:12:02;;;;;;;10.60;5.50;;;9.50;74.00;;;;;;5038728;28;20664;-76
2021/11/10 10:14:28;;;;;;;10.10;6.18;;;9.60;73.90;;;;;;5034702;28;20067;-76
2021/11/10 10:16:54;;;;;;;11.80;6.13;;;9.70;74.40;;;;;;5024292;28;20099;-76
2021/11/10 10:19:21;;;;;;;12.75;6.60;;;9.80;73.70;;;;;;5026004;28;20032;-76
2021/11/10 10:21:59;;;;;;;8.80;5.22;;;9.90;73.60;;;;;;5034711;28;20049;-78
2021/11/10 10:24:25;;;;;;;10.82;6.60;;;10.00;73.60;;;;;;5021426;28;20032;-77
2021/11/10 10:26:51;;;;;;;10.50;5.90;;;10.10;73.40;;;;;;5027274;28;20030;-77
2021/11/10 10:29:17;;;;;;;10.32;5.90;;;10.20;73.30;;;;;;5025741;28;20054;-77
2021/11/10 10:31:43;;;;;;;10.18;4.43;;;10.20;73.20;;;;;;5034101;28;20025;-77
2021/11/10 10:34:11;;;;;;;8.25;4.70;;;10.30;73.20;;;;;;5030706;28;20025;-77
2021/11/10 10:36:40;;;;;;;6.95;3.97;;;10.30;73.10;;;;;;5026853;28;20559;-77
2021/11/10 10:39:10;;;;;;;10.20;5.45;;;10.40;73.10;;;;;;5019957;28;20025;-78
2021/11/10 10:41:41;;;;;;;6.25;4.32;;;10.40;72.90;;;;;;5015389;28;20037;-77
2021/11/10 10:44:12;;;;;;;11.68;5.25;;;10.50;73.00;;;;;;5020609;28;20484;-77
2021/11/10 10:46:43;;;;;;;10.07;5.38;;;10.60;73.00;;;;;;5031038;28;20478;-77
2021/11/10 10:49:49;;;;;;;10.32;6.20;;;10.70;73.00;;;;;;5039841;28;20063;-77
2021/11/10 10:52:18;;;;;;;12.88;6.88;;;10.70;72.80;;;;;;5025532;28;20036;-77
2021/11/10 10:54:47;;;;;;;12.90;7.50;;;10.80;72.70;;;;;;5025608;28;20029;-77
2021/11/10 10:57:19;;;;;;;15.20;8.35;;;10.90;72.50;;;;;;5027042;28;20064;-77
2021/11/10 10:59:45;;;;;;;10.43;5.90;;;11.00;72.40;;;;;;5028520;28;20022;-76
2021/11/10 11:02:11;;;;;;;11.18;6.82;;;11.00;72.30;;;;;;5026021;28;20460;-77
2021/11/10 11:04:45;;;;;;;12.63;7.68;;;11.10;72.20;;;;;;5028129;28;20021;-77
2021/11/10 11:07:12;;;;;;;10.20;5.70;;;11.10;71.90;;;;;;5025520;28;20025;-77
2021/11/10 11:09:42;;;;;;;7.93;5.03;;;11.20;72.00;;;;;;5026821;28;20574;-77
2021/11/10 11:12:19;;;;;;;7.85;5.32;;;11.30;72.00;;;;;;5053388;28;20025;-77
2021/11/10 11:14:59;;;;;;;9.60;5.70;;;11.30;71.90;;;;;;5022598;28;20042;-77
2021/11/10 11:17:36;;;;;;;19.90;7.30;;;11.40;71.90;;;;;;5022350;28;20041;-77
2021/11/10 11:20:08;;;;;;;9.88;5.10;;;11.40;71.80;;;;;;5025237;28;20030;-77
2021/11/10 11:22:45;;;;;;;51.60;11.93;;;11.50;71.80;;;;;;5018615;28;20029;-77
2021/11/10 11:25:12;;;;;;;15.05;7.20;;;11.50;71.60;;;;;;5019896;28;20036;-77
2021/11/10 11:27:39;;;;;;;10.88;5.82;;;11.60;71.50;;;;;;5020943;28;20385;-76
2021/11/10 11:30:13;;;;;;;11.23;6.65;;;11.60;71.50;;;;;;5020573;28;20029;-77
2021/11/10 11:32:44;;;;;;;9.00;5.95;;;11.60;71.40;;;;;;5017907;28;20435;-77
2021/11/10 11:35:25;;;;;;;12.82;7.30;;;11.50;71.30;;;;;;5027416;28;20100;-78
2021/11/10 11:37:51;;;;;;;10.43;6.78;;;11.40;71.10;;;;;;5021845;28;20045;-78
2021/11/10 11:40:19;;;;;;;13.13;8.18;;;11.40;71.30;;;;;;5026202;28;20071;-77
2021/11/10 11:42:46;;;;;;;16.73;8.80;;;11.30;71.30;;;;;;5028393;28;20555;-78
2021/11/10 11:45:14;;;;;;;12.00;6.95;;;11.40;71.40;;;;;;5028235;28;20040;-77
2021/11/10 11:47:50;;;;;;;12.50;7.30;;;11.40;71.20;;;;;;5030840;28;20030;-77
2021/11/10 11:50:17;;;;;;;10.75;6.82;;;11.50;71.20;;;;;;5028057;28;20475;-77
2021/11/10 11:52:47;;;;;;;12.45;6.97;;;11.60;71.00;;;;;;5033013;28;20021;-77
2021/11/10 11:55:27;;;;;;;10.55;6.88;;;11.70;70.90;;;;;;5024947;28;20087;-78
2021/11/10 11:58:15;;;;;;;13.68;6.30;;;11.80;70.60;;;;;;5024516;28;20553;-77
2021/11/10 12:00:48;;;;;;;12.55;5.18;;;11.90;70.70;;;;;;5027717;28;20022;-77
2021/11/10 12:03:28;;;;;;;8.75;5.30;;;12.00;70.70;;;;;;5030093;28;20084;-78
2021/11/10 12:06:17;;;;;;;9.35;5.45;;;12.10;70.60;;;;;;5023421;28;20024;-78
2021/11/10 12:08:46;;;;;;;7.68;4.85;;;12.20;70.50;;;;;;5027573;28;20088;-78
2021/11/10 12:11:38;;;;;;;7.97;4.30;;;12.30;70.60;;;;;;5028025;28;20021;-77
2021/11/10 12:14:04;;;;;;;12.75;6.30;;;12.40;70.60;;;;;;5028658;28;20039;-78
2021/11/10 12:16:45;;;;;;;48.40;13.82;;;12.50;70.20;;;;;;5023993;28;20033;-77
2021/11/10 12:19:20;;;;;;;22.23;7.40;;;12.50;69.70;;;;;;5023129;28;20203;-78
2021/11/10 12:21:49;;;;;;;10.70;5.82;;;12.50;69.60;;;;;;5029400;28;20021;-75
2021/11/10 12:24:27;;;;;;;7.97;5.38;;;12.60;69.40;;;;;;5035001;28;20021;-78
2021/11/10 12:27:15;;;;;;;15.00;8.40;;;12.60;69.40;;;;;;5026213;28;20080;-76
2021/11/10 12:29:42;;;;;;;14.98;8.38;;;12.50;68.80;;;;;;5020778;28;20681;-76
2021/11/10 12:32:08;;;;;;;11.48;7.43;;;12.50;68.90;;;;;;5029828;28;20060;-75
2021/11/10 12:34:36;;;;;;;9.80;6.40;;;12.50;68.90;;;;;;5034940;28;20030;-75
2021/11/10 12:37:19;;;;;;;12.60;7.75;;;12.40;69.10;;;;;;5018450;28;20077;-76
2021/11/10 12:39:45;;;;;;;12.73;7.68;;;12.50;69.30;;;;;;5021678;28;20026;-75
2021/11/10 12:42:13;;;;;;;10.93;6.70;;;12.40;69.70;;;;;;5055483;28;20424;-77
2021/11/10 12:44:47;;;;;;;12.57;7.88;;;12.40;69.40;;;;;;5017984;28;20030;-76
2021/11/10 12:47:16;;;;;;;12.82;6.72;;;12.40;69.10;;;;;;5022758;28;20069;-76
2021/11/10 12:49:42;;;;;;;11.57;6.20;;;12.30;69.30;;;;;;5025752;28;20025;-75
2021/11/10 12:52:13;;;;;;;11.15;6.47;;;12.30;69.40;;;;;;5054879;28;20029;-76
2021/11/10 12:54:44;;;;;;;15.13;8.40;;;12.30;69.50;;;;;;5026255;28;20109;-75